createdAt,value
2018-05-07T00:01:00.276Z,99.90
2018-05-07T00:03:27.825Z,99.90
2018-05-07T00:05:55.557Z,99.90
2018-05-07T00:08:23.256Z,99.90
2018-05-07T00:10:51.519Z,99.90
2018-05-07T00:13:19.109Z,99.90
2018-05-07T00:15:47.453Z,99.90
2018-05-07T00:18:15.023Z,99.90
2018-05-07T00:20:42.646Z,99.90
2018-05-07T00:23:10.960Z,99.90
2018-05-07T00:25:38.522Z,99.90
2018-05-07T00:28:06.089Z,99.90
2018-05-07T00:30:33.678Z,99.90
2018-05-07T00:33:01.261Z,99.90
2018-05-07T00:35:28.830Z,99.90
2018-05-07T00:37:56.428Z,99.90
2018-05-07T00:40:24.029Z,99.90
2018-05-07T00:42:51.711Z,99.90
2018-05-07T00:45:19.441Z,99.90
2018-05-07T00:47:47.787Z,99.90
2018-05-07T00:50:15.340Z,99.90
2018-05-07T00:52:42.940Z,99.90
2018-05-07T00:55:23.380Z,99.90
2018-05-07T00:57:51.753Z,99.90
2018-05-07T01:00:19.342Z,99.90
2018-05-07T01:02:46.958Z,99.90
2018-05-07T01:05:14.550Z,99.90
2018-05-07T01:07:43.162Z,99.90
2018-05-07T01:10:10.752Z,99.90
2018-05-07T01:12:38.327Z,99.90
2018-05-07T01:15:05.869Z,99.90
2018-05-07T01:17:33.447Z,99.90
2018-05-07T01:20:01.030Z,99.90
2018-05-07T01:22:29.421Z,99.90
2018-05-07T01:24:57.759Z,99.90
2018-05-07T01:27:25.432Z,99.90
2018-05-07T01:29:53.027Z,99.90
2018-05-07T01:32:21.373Z,99.90
2018-05-07T01:34:48.957Z,99.90
2018-05-07T01:37:17.314Z,99.90
2018-05-07T01:39:44.954Z,99.90
2018-05-07T01:42:12.564Z,99.90
2018-05-07T01:44:40.931Z,99.90
2018-05-07T01:47:09.269Z,99.90
2018-05-07T01:49:36.857Z,99.90
2018-05-07T01:52:04.468Z,99.90
2018-05-07T01:54:32.049Z,99.90
2018-05-07T01:56:59.713Z,99.90
2018-05-07T01:59:27.294Z,99.90
2018-05-07T02:01:54.896Z,99.90
2018-05-07T02:04:22.438Z,99.90
2018-05-07T02:06:50.767Z,99.90
2018-05-07T02:09:18.330Z,99.90
2018-05-07T02:11:45.929Z,99.90
2018-05-07T02:14:14.260Z,99.90
2018-05-07T02:16:41.815Z,99.90
2018-05-07T02:19:09.379Z,99.90
2018-05-07T02:21:36.936Z,99.90
2018-05-07T02:24:04.487Z,99.90
2018-05-07T02:26:32.142Z,99.90
2018-05-07T02:28:59.709Z,99.90
2018-05-07T02:31:27.313Z,99.90
2018-05-07T02:33:55.805Z,99.90
2018-05-07T02:36:23.386Z,99.90
2018-05-07T02:38:51.062Z,99.90
2018-05-07T02:41:18.689Z,99.90
2018-05-07T02:43:46.322Z,99.90
2018-05-07T02:46:13.967Z,99.90
2018-05-07T02:48:41.592Z,99.90
2018-05-07T02:51:09.896Z,99.90
2018-05-07T02:53:37.523Z,99.90
2018-05-07T02:56:05.722Z,99.90
2018-05-07T02:58:33.287Z,99.90
2018-05-07T03:01:00.829Z,99.90
2018-05-07T03:03:29.192Z,99.90
2018-05-07T03:05:57.544Z,99.90
2018-05-07T03:08:25.147Z,99.90
2018-05-07T03:10:53.471Z,99.90
2018-05-07T03:13:21.046Z,99.90
2018-05-07T03:15:48.644Z,99.90
2018-05-07T03:18:17.036Z,99.90
2018-05-07T03:20:44.622Z,99.90
2018-05-07T03:23:12.260Z,99.90
2018-05-07T03:25:39.812Z,99.90
2018-05-07T03:28:07.403Z,99.90
2018-05-07T03:30:34.965Z,99.90
2018-05-07T03:33:02.514Z,99.90
2018-05-07T03:35:30.105Z,99.90
2018-05-07T03:37:57.763Z,99.90
2018-05-07T03:40:25.402Z,99.90
2018-05-07T03:42:52.954Z,99.90
2018-05-07T03:45:20.568Z,99.90
2018-05-07T03:47:48.893Z,99.90
2018-05-07T03:50:16.488Z,99.90
2018-05-07T03:52:44.077Z,99.90
2018-05-07T03:55:12.417Z,99.90
2018-05-07T03:57:40.027Z,99.90
2018-05-07T04:00:07.600Z,99.90
2018-05-07T04:02:35.239Z,99.90
2018-05-07T04:05:03.667Z,99.90
2018-05-07T04:07:31.392Z,99.90
2018-05-07T04:09:58.995Z,99.90
2018-05-07T04:12:26.679Z,99.90
2018-05-07T04:14:54.251Z,99.90
2018-05-07T04:17:32.401Z,99.90
2018-05-07T04:20:11.786Z,99.90
2018-05-07T04:22:51.267Z,99.90
2018-05-07T04:25:18.920Z,99.90
2018-05-07T04:27:46.510Z,99.90
2018-05-07T04:30:14.107Z,99.90
2018-05-07T04:32:41.680Z,99.90
2018-05-07T04:35:10.045Z,99.90
2018-05-07T04:37:37.612Z,99.90
2018-05-07T04:40:05.179Z,99.90
2018-05-07T04:42:33.593Z,99.90
2018-05-07T04:45:01.228Z,99.90
2018-05-07T04:47:29.619Z,99.90
2018-05-07T04:49:57.967Z,99.90
2018-05-07T04:52:25.561Z,99.90
2018-05-07T04:54:53.177Z,99.90
2018-05-07T04:57:20.768Z,99.90
2018-05-07T04:59:49.093Z,99.90
2018-05-07T05:02:17.483Z,99.90
2018-05-07T05:04:45.091Z,99.90
2018-05-07T05:07:13.488Z,99.90
2018-05-07T05:09:41.808Z,99.90
2018-05-07T05:12:09.428Z,99.90
2018-05-07T05:14:37.012Z,99.90
2018-05-07T05:17:04.788Z,97.70
2018-05-07T05:19:32.407Z,96.30
2018-05-07T05:22:00.923Z,95.20
2018-05-07T05:24:28.512Z,94.10
2018-05-07T05:26:56.113Z,93.40
2018-05-07T05:29:23.700Z,91.80
2018-05-07T05:31:51.349Z,91.50
2018-05-07T05:34:18.945Z,91.30
2018-05-07T05:36:46.509Z,90.80
2018-05-07T05:39:14.084Z,90.80
2018-05-07T05:41:42.500Z,90.80
2018-05-07T05:44:10.664Z,90.80
2018-05-07T05:46:38.255Z,90.80
2018-05-07T05:49:05.852Z,91.00
2018-05-07T05:51:33.455Z,91.60
2018-05-07T05:54:01.022Z,92.20
2018-05-07T05:56:28.708Z,92.40
2018-05-07T05:58:56.306Z,92.60
2018-05-07T06:01:24.658Z,93.30
2018-05-07T06:03:52.336Z,93.40
2018-05-07T06:06:20.646Z,93.30
2018-05-07T06:08:48.993Z,92.60
2018-05-07T06:11:16.614Z,92.60
2018-05-07T06:13:44.217Z,91.50
2018-05-07T06:16:11.811Z,90.30
2018-05-07T06:18:40.893Z,86.20
2018-05-07T06:21:09.255Z,83.80
2018-05-07T06:23:36.868Z,83.70
2018-05-07T06:26:04.473Z,82.60
2018-05-07T06:28:32.051Z,81.60
2018-05-07T06:31:00.507Z,81.10
2018-05-07T06:33:28.123Z,81.10
2018-05-07T06:35:55.697Z,83.00
2018-05-07T06:38:23.390Z,83.60
2018-05-07T06:40:51.792Z,87.00
2018-05-07T06:43:19.433Z,87.30
2018-05-07T06:45:47.284Z,90.10
2018-05-07T06:48:15.548Z,91.60
2018-05-07T06:50:43.124Z,91.60
2018-05-07T06:53:10.767Z,91.80
2018-05-07T06:55:38.351Z,92.20
2018-05-07T06:58:06.012Z,92.10
2018-05-07T07:00:33.593Z,92.60
2018-05-07T07:03:02.067Z,92.70
2018-05-07T07:05:29.605Z,92.70
2018-05-07T07:07:57.180Z,92.70
2018-05-07T07:10:24.856Z,93.00
2018-05-07T07:12:53.279Z,92.80
2018-05-07T07:15:20.915Z,92.80
2018-05-07T07:17:49.280Z,92.90
2018-05-07T07:20:17.614Z,93.00
2018-05-07T07:22:45.193Z,92.90
2018-05-07T07:25:12.765Z,92.90
2018-05-07T07:27:40.397Z,93.30
2018-05-07T07:30:08.009Z,93.00
2018-05-07T07:32:36.380Z,93.00
2018-05-07T07:35:04.065Z,92.90
2018-05-07T07:37:31.664Z,92.80
2018-05-07T07:39:59.248Z,92.60
2018-05-07T07:42:26.889Z,92.00
2018-05-07T07:44:54.487Z,92.20
2018-05-07T07:47:22.062Z,91.60
2018-05-07T07:49:49.668Z,91.60
2018-05-07T07:52:17.278Z,91.50
2018-05-07T07:54:44.911Z,91.70
2018-05-07T07:57:12.541Z,91.40
2018-05-07T07:59:40.138Z,91.50
2018-05-07T08:02:07.755Z,91.50
2018-05-07T08:04:35.358Z,91.00
2018-05-07T08:07:03.013Z,90.90
2018-05-07T08:09:30.633Z,91.20
2018-05-07T08:11:58.243Z,91.10
2018-05-07T08:14:25.873Z,90.80
2018-05-07T08:16:53.453Z,90.90
2018-05-07T08:19:21.123Z,91.10
2018-05-07T08:21:48.742Z,91.30
2018-05-07T08:24:16.338Z,91.00
2018-05-07T08:26:44.339Z,91.00
2018-05-07T08:29:11.909Z,91.10
2018-05-07T08:31:39.522Z,90.60
2018-05-07T08:34:07.097Z,90.90
2018-05-07T08:36:35.454Z,90.40
2018-05-07T08:39:03.058Z,90.40
2018-05-07T08:41:31.444Z,90.40
2018-05-07T08:43:59.054Z,90.40
2018-05-07T08:46:26.646Z,89.50
2018-05-07T08:48:54.986Z,89.10
2018-05-07T08:51:22.581Z,89.10
2018-05-07T08:53:50.979Z,88.90
2018-05-07T08:56:19.330Z,88.00
2018-05-07T08:58:46.940Z,87.90
2018-05-07T09:01:14.531Z,88.50
2018-05-07T09:03:42.104Z,88.20
2018-05-07T09:06:09.726Z,88.20
2018-05-07T09:08:37.317Z,87.00
2018-05-07T09:11:04.910Z,86.50
2018-05-07T09:13:33.292Z,87.80
2018-05-07T09:16:00.917Z,87.80
2018-05-07T09:18:28.487Z,86.20
2018-05-07T09:20:56.076Z,85.80
2018-05-07T09:23:24.461Z,85.50
2018-05-07T09:25:52.795Z,84.60
2018-05-07T09:28:20.633Z,84.50
2018-05-07T09:30:48.263Z,84.60
2018-05-07T09:33:16.614Z,84.60
2018-05-07T09:35:44.226Z,84.50
2018-05-07T09:38:11.918Z,84.50
2018-05-07T09:40:39.544Z,84.70
2018-05-07T09:43:07.217Z,84.30
2018-05-07T09:45:34.759Z,83.60
2018-05-07T09:48:02.377Z,82.30
2018-05-07T09:50:29.986Z,82.10
2018-05-07T09:52:57.552Z,80.80
2018-05-07T09:55:25.112Z,80.40
2018-05-07T09:58:02.695Z,80.80
2018-05-07T10:00:36.069Z,80.90
2018-05-07T10:03:03.659Z,83.10
2018-05-07T10:05:31.293Z,80.80
2018-05-07T10:07:58.877Z,78.90
2018-05-07T10:10:26.494Z,79.10
2018-05-07T10:12:54.200Z,78.80
2018-05-07T10:15:22.578Z,78.90
2018-05-07T10:17:50.112Z,78.90
2018-05-07T10:20:17.693Z,79.00
2018-05-07T10:22:46.110Z,78.20
2018-05-07T10:25:13.702Z,78.20
2018-05-07T10:27:41.300Z,78.00
2018-05-07T10:30:08.903Z,74.70
2018-05-07T10:32:36.623Z,77.20
2018-05-07T10:35:04.267Z,78.10
2018-05-07T10:37:32.668Z,77.10
2018-05-07T10:40:00.235Z,77.20
2018-05-07T10:42:27.863Z,77.80
2018-05-07T10:44:55.421Z,78.10
2018-05-07T10:47:23.008Z,77.70
2018-05-07T10:49:50.628Z,77.60
2018-05-07T10:52:18.302Z,77.00
2018-05-07T10:54:45.903Z,76.50
2018-05-07T10:57:13.552Z,76.50
2018-05-07T10:59:41.145Z,76.30
2018-05-07T11:02:08.761Z,76.70
2018-05-07T11:04:37.080Z,77.70
2018-05-07T11:07:04.698Z,77.70
2018-05-07T11:09:33.056Z,76.50
2018-05-07T11:12:00.661Z,76.50
2018-05-07T11:14:28.307Z,76.20
2018-05-07T11:16:55.928Z,76.20
2018-05-07T11:19:23.482Z,73.80
2018-05-07T11:21:51.109Z,75.50
2018-05-07T11:24:18.705Z,75.70
2018-05-07T11:26:46.315Z,76.90
2018-05-07T11:29:13.907Z,75.10
2018-05-07T11:31:41.484Z,75.10
2018-05-07T11:34:09.171Z,74.00
2018-05-07T11:36:36.762Z,73.60
2018-05-07T11:39:05.349Z,75.40
2018-05-07T11:41:32.954Z,76.50
2018-05-07T11:44:00.517Z,72.90
2018-05-07T11:46:28.187Z,73.60
2018-05-07T11:48:55.850Z,73.90
2018-05-07T11:51:23.436Z,72.90
2018-05-07T11:53:51.794Z,73.20
2018-05-07T11:56:19.356Z,73.20
2018-05-07T11:58:46.928Z,73.90
2018-05-07T12:01:15.254Z,71.50
2018-05-07T12:03:42.880Z,71.40
2018-05-07T12:06:10.438Z,71.10
2018-05-07T12:08:38.037Z,72.00
2018-05-07T12:11:05.606Z,71.00
2018-05-07T12:13:33.200Z,71.50
2018-05-07T12:16:00.819Z,72.70
2018-05-07T12:18:29.300Z,70.30
2018-05-07T12:20:56.904Z,71.20
2018-05-07T12:23:25.293Z,73.30
2018-05-07T12:25:52.867Z,74.20
2018-05-07T12:28:20.451Z,73.90
2018-05-07T12:30:48.070Z,71.40
2018-05-07T12:33:16.580Z,72.20
2018-05-07T12:35:44.156Z,72.20
2018-05-07T12:38:12.596Z,67.50
2018-05-07T12:40:40.955Z,68.50
2018-05-07T12:43:08.591Z,68.50
2018-05-07T12:45:36.203Z,69.30
2018-05-07T12:48:04.591Z,69.80
2018-05-07T12:50:32.156Z,69.80
2018-05-07T12:52:59.852Z,69.60
2018-05-07T12:55:28.137Z,69.00
2018-05-07T12:57:55.752Z,68.20
2018-05-07T13:00:23.340Z,67.10
2018-05-07T13:02:50.938Z,67.50
2018-05-07T13:05:18.568Z,67.20
2018-05-07T13:07:46.235Z,65.50
2018-05-07T13:10:13.905Z,66.20
2018-05-07T13:12:41.527Z,66.60
2018-05-07T13:15:09.115Z,67.30
2018-05-07T13:17:36.688Z,64.30
2018-05-07T13:20:04.306Z,64.40
2018-05-07T13:22:31.896Z,64.30
2018-05-07T13:24:59.559Z,63.80
2018-05-07T13:27:27.139Z,63.80
2018-05-07T13:29:54.689Z,63.50
2018-05-07T13:32:22.275Z,64.60
2018-05-07T13:34:49.828Z,64.90
2018-05-07T13:37:17.421Z,64.00
2018-05-07T13:39:44.983Z,62.50
2018-05-07T13:42:13.363Z,61.60
2018-05-07T13:44:40.917Z,61.50
2018-05-07T13:47:09.247Z,59.50
2018-05-07T13:49:36.965Z,59.40
2018-05-07T13:52:04.621Z,59.90
2018-05-07T13:54:33.056Z,59.80
2018-05-07T13:57:00.690Z,59.70
2018-05-07T13:59:28.282Z,59.90
2018-05-07T14:01:56.788Z,59.30
2018-05-07T14:04:24.437Z,59.30
2018-05-07T14:06:52.131Z,59.20
2018-05-07T14:09:19.713Z,59.90
2018-05-07T14:11:47.324Z,59.20
2018-05-07T14:14:14.956Z,58.30
2018-05-07T14:16:42.601Z,58.30
2018-05-07T14:19:10.152Z,57.90
2018-05-07T14:21:37.801Z,56.60
2018-05-07T14:24:06.222Z,56.50
2018-05-07T14:26:33.792Z,56.50
2018-05-07T14:29:01.421Z,56.10
2018-05-07T14:31:29.033Z,55.80
2018-05-07T14:33:56.661Z,56.40
2018-05-07T14:36:24.328Z,56.10
2018-05-07T14:38:52.035Z,55.70
2018-05-07T14:41:19.595Z,56.80
2018-05-07T14:43:47.934Z,57.70
2018-05-07T14:46:15.574Z,57.10
2018-05-07T14:48:44.190Z,56.80
2018-05-07T14:51:11.818Z,57.10
2018-05-07T14:53:39.431Z,56.10
2018-05-07T14:56:07.027Z,57.40
2018-05-07T14:58:34.638Z,57.40
2018-05-07T15:01:02.228Z,55.00
2018-05-07T15:03:30.583Z,55.50
2018-05-07T15:05:58.192Z,55.50
2018-05-07T15:08:25.855Z,57.10
2018-05-07T15:10:53.411Z,58.00
2018-05-07T15:13:21.034Z,58.50
2018-05-07T15:15:48.726Z,58.40
2018-05-07T15:18:16.317Z,56.60
2018-05-07T15:20:43.952Z,56.20
2018-05-07T15:23:11.570Z,55.80
2018-05-07T15:25:39.222Z,56.10
2018-05-07T15:28:06.786Z,56.50
2018-05-07T15:30:34.341Z,56.80
2018-05-07T15:33:01.973Z,57.10
2018-05-07T15:35:29.577Z,57.50
2018-05-07T15:37:57.893Z,58.30
2018-05-07T15:40:25.482Z,58.40
2018-05-07T15:42:53.069Z,58.50
2018-05-07T15:45:20.647Z,56.40
2018-05-07T15:47:48.703Z,54.80
2018-05-07T15:50:16.282Z,55.10
2018-05-07T15:52:44.666Z,55.40
2018-05-07T15:55:13.154Z,54.90
2018-05-07T15:57:41.517Z,55.20
2018-05-07T16:00:09.111Z,55.10
2018-05-07T16:02:36.759Z,55.50
2018-05-07T16:05:04.308Z,54.90
2018-05-07T16:07:32.962Z,53.30
2018-05-07T16:10:00.785Z,54.00
2018-05-07T16:12:28.450Z,54.40
2018-05-07T16:14:56.190Z,54.90
2018-05-07T16:17:24.533Z,54.80
2018-05-07T16:19:52.201Z,54.80
2018-05-07T16:22:19.911Z,55.60
2018-05-07T16:24:47.475Z,56.10
2018-05-07T16:27:15.055Z,55.70
2018-05-07T16:29:42.616Z,56.20
2018-05-07T16:32:10.250Z,55.10
2018-05-07T16:34:37.888Z,55.30
2018-05-07T16:37:05.575Z,55.30
2018-05-07T16:39:33.222Z,55.70
2018-05-07T16:42:01.586Z,56.20
2018-05-07T16:44:29.193Z,56.20
2018-05-07T16:46:56.798Z,57.00
2018-05-07T16:49:24.367Z,55.10
2018-05-07T16:51:51.977Z,53.70
2018-05-07T16:54:19.623Z,53.70
2018-05-07T16:56:47.214Z,53.70
2018-05-07T16:59:14.769Z,53.00
2018-05-07T17:01:43.305Z,52.60
2018-05-07T17:04:11.678Z,53.30
2018-05-07T17:06:39.563Z,52.60
2018-05-07T17:09:08.088Z,52.10
2018-05-07T17:11:35.672Z,52.10
2018-05-07T17:14:03.308Z,51.90
2018-05-07T17:16:30.956Z,51.50
2018-05-07T17:18:58.544Z,50.10
2018-05-07T17:21:26.278Z,49.10
2018-05-07T17:23:54.026Z,47.80
2018-05-07T17:26:21.643Z,46.50
2018-05-07T17:28:49.233Z,44.50
2018-05-07T17:31:17.689Z,42.30
2018-05-07T17:33:45.418Z,42.30
2018-05-07T17:36:12.925Z,41.90
2018-05-07T17:38:41.300Z,39.70
2018-05-07T17:41:09.778Z,38.50
2018-05-07T17:43:38.189Z,37.90
2018-05-07T17:46:18.068Z,37.90
2018-05-07T17:48:54.869Z,37.50
2018-05-07T17:51:22.511Z,37.20
2018-05-07T17:53:50.159Z,37.40
2018-05-07T17:56:17.727Z,38.00
2018-05-07T17:58:45.289Z,38.30
2018-05-07T18:01:12.916Z,39.10
2018-05-07T18:03:40.485Z,40.20
2018-05-07T18:06:08.130Z,43.00
2018-05-07T18:08:36.508Z,48.20
2018-05-07T18:11:04.086Z,48.10
2018-05-07T18:13:31.741Z,48.70
2018-05-07T18:15:59.306Z,50.00
2018-05-07T18:18:27.975Z,51.80
2018-05-07T18:20:56.329Z,54.50
2018-05-07T18:23:23.931Z,54.50
2018-05-07T18:25:51.574Z,55.80
2018-05-07T18:28:19.950Z,59.00
2018-05-07T18:30:48.302Z,60.40
2018-05-07T18:33:15.911Z,60.50
2018-05-07T18:35:43.542Z,62.00
2018-05-07T18:38:11.932Z,64.80
2018-05-07T18:40:39.507Z,64.70
2018-05-07T18:43:07.168Z,65.70
2018-05-07T18:45:34.764Z,66.50
2018-05-07T18:48:02.398Z,67.30
2018-05-07T18:50:30.006Z,68.10
2018-05-07T18:52:57.578Z,68.90
2018-05-07T18:55:25.151Z,69.50
2018-05-07T18:57:53.511Z,71.40
2018-05-07T19:00:21.091Z,70.50
2018-05-07T19:02:48.745Z,70.90
2018-05-07T19:05:17.223Z,71.90
2018-05-07T19:07:44.842Z,71.70
2018-05-07T19:10:12.521Z,72.20
2018-05-07T19:12:40.160Z,73.00
2018-05-07T19:15:09.026Z,73.20
2018-05-07T19:17:37.361Z,74.20
2018-05-07T19:20:05.002Z,74.20
2018-05-07T19:22:32.600Z,74.70
2018-05-07T19:25:01.111Z,75.80
2018-05-07T19:27:28.709Z,75.70
2018-05-07T19:29:56.297Z,76.30
2018-05-07T19:32:23.864Z,76.70
2018-05-07T19:34:52.217Z,77.60
2018-05-07T19:37:19.799Z,77.50
2018-05-07T19:39:47.406Z,78.00
2018-05-07T19:42:15.003Z,78.50
2018-05-07T19:44:42.639Z,78.90
2018-05-07T19:47:10.963Z,79.60
2018-05-07T19:49:38.558Z,80.10
2018-05-07T19:52:06.256Z,80.50
2018-05-07T19:54:34.592Z,81.50
2018-05-07T19:57:02.300Z,81.40
2018-05-07T19:59:30.050Z,81.80
2018-05-07T20:01:57.625Z,82.10
2018-05-07T20:04:25.290Z,83.50
2018-05-07T20:06:52.845Z,83.30
2018-05-07T20:09:21.943Z,84.60
2018-05-07T20:11:49.533Z,85.10
2018-05-07T20:14:17.924Z,86.10
2018-05-07T20:16:46.276Z,86.30
2018-05-07T20:19:14.070Z,86.30
2018-05-07T20:21:42.428Z,86.70
2018-05-07T20:24:10.811Z,87.00
2018-05-07T20:26:38.424Z,87.00
2018-05-07T20:29:06.048Z,87.20
2018-05-07T20:31:33.644Z,87.50
2018-05-07T20:34:01.240Z,87.60
2018-05-07T20:36:28.835Z,87.90
2018-05-07T20:38:56.435Z,88.10
2018-05-07T20:41:24.021Z,88.30
2018-05-07T20:43:51.655Z,88.50
2018-05-07T20:46:19.278Z,88.60
2018-05-07T20:48:46.931Z,88.90
2018-05-07T20:51:15.291Z,89.10
2018-05-07T20:53:43.826Z,89.10
2018-05-07T20:56:11.403Z,89.20
2018-05-07T20:58:39.019Z,89.20
2018-05-07T21:01:07.345Z,89.30
2018-05-07T21:03:34.953Z,89.30
2018-05-07T21:06:03.312Z,89.40
2018-05-07T21:08:30.907Z,89.40
2018-05-07T21:10:58.454Z,89.40
2018-05-07T21:13:26.820Z,89.30
2018-05-07T21:15:54.514Z,89.30
2018-05-07T21:18:22.283Z,89.40
2018-05-07T21:20:49.849Z,89.50
2018-05-07T21:23:17.452Z,89.60
2018-05-07T21:25:45.013Z,90.00
2018-05-07T21:28:12.624Z,89.80
2018-05-07T21:30:40.232Z,90.00
2018-05-07T21:33:07.814Z,90.00
2018-05-07T21:35:36.165Z,90.00
2018-05-07T21:38:03.744Z,90.00
2018-05-07T21:40:31.320Z,90.20
2018-05-07T21:42:59.689Z,90.60
2018-05-07T21:45:28.040Z,90.90
2018-05-07T21:47:55.635Z,90.90
2018-05-07T21:50:23.992Z,91.10
2018-05-07T21:52:51.596Z,91.00
2018-05-07T21:55:19.193Z,91.10
2018-05-07T21:57:46.755Z,91.30
2018-05-07T22:00:14.316Z,91.40
2018-05-07T22:02:41.959Z,91.50
2018-05-07T22:05:09.535Z,91.80
2018-05-07T22:07:37.156Z,91.90
2018-05-07T22:10:04.730Z,92.00
2018-05-07T22:12:32.318Z,92.00
2018-05-07T22:15:00.186Z,92.20
2018-05-07T22:17:27.862Z,92.40
2018-05-07T22:19:55.456Z,92.50
2018-05-07T22:22:23.052Z,92.70
2018-05-07T22:24:50.643Z,93.00
2018-05-07T22:27:18.243Z,93.30
2018-05-07T22:29:45.811Z,93.60
2018-05-07T22:32:13.427Z,93.80
2018-05-07T22:34:40.969Z,93.80
2018-05-07T22:37:08.722Z,94.10
2018-05-07T22:39:36.345Z,94.60
2018-05-07T22:42:03.969Z,94.40
2018-05-07T22:44:31.569Z,94.50
2018-05-07T22:46:59.174Z,94.60
2018-05-07T22:49:26.948Z,94.90
2018-05-07T22:51:54.545Z,95.00
2018-05-07T22:54:22.153Z,95.10
2018-05-07T22:56:49.741Z,95.30
2018-05-07T22:59:17.343Z,95.60
2018-05-07T23:01:44.991Z,95.60
2018-05-07T23:04:12.650Z,95.60
2018-05-07T23:06:41.042Z,96.10
2018-05-07T23:09:08.622Z,96.10
2018-05-07T23:11:36.298Z,96.20
2018-05-07T23:14:03.900Z,96.40
2018-05-07T23:16:32.257Z,96.60
2018-05-07T23:18:59.851Z,97.00
2018-05-07T23:21:27.445Z,96.60
2018-05-07T23:23:55.045Z,96.80
2018-05-07T23:26:22.634Z,97.00
2018-05-07T23:28:50.273Z,97.20
2018-05-07T23:31:18.646Z,97.40
2018-05-07T23:33:46.230Z,97.40
2018-05-07T23:36:14.619Z,97.60
2018-05-07T23:38:42.218Z,97.60
2018-05-07T23:41:09.801Z,97.90
2018-05-07T23:43:37.453Z,98.10
2018-05-07T23:46:05.045Z,98.30
2018-05-07T23:48:33.456Z,98.40
2018-05-07T23:51:01.037Z,98.60
2018-05-07T23:53:28.622Z,98.60
2018-05-07T23:55:56.203Z,98.70
2018-05-07T23:58:24.588Z,98.70
